sensor_id;sensor_type;location;lat;lon;timestamp;P1;durP1;ratioP1;P2;durP2;ratioP2
71303;SDS011;59091;47.446;19.148;2024-03-23T00:53:13;50.08;;;25.92;;
71303;SDS011;59091;47.446;19.148;2024-03-23T00:55:40;42.40;;;23.60;;
71303;SDS011;59091;47.446;19.148;2024-03-23T00:58:05;43.78;;;24.52;;
71303;SDS011;59091;47.446;19.148;2024-03-23T01:00:31;50.10;;;25.23;;
71303;SDS011;59091;47.446;19.148;2024-03-23T01:02:56;49.10;;;25.67;;
71303;SDS011;59091;47.446;19.148;2024-03-23T01:05:22;45.92;;;25.17;;
71303;SDS011;59091;47.446;19.148;2024-03-23T01:07:47;42.25;;;22.52;;
71303;SDS011;59091;47.446;19.148;2024-03-23T01:10:12;43.25;;;23.67;;
71303;SDS011;59091;47.446;19.148;2024-03-23T01:12:38;47.85;;;23.75;;
71303;SDS011;59091;47.446;19.148;2024-03-23T01:15:03;47.78;;;23.33;;
71303;SDS011;59091;47.446;19.148;2024-03-23T01:17:29;48.83;;;25.23;;
71303;SDS011;59091;47.446;19.148;2024-03-23T01:19:55;49.85;;;24.88;;
71303;SDS011;59091;47.446;19.148;2024-03-23T01:22:20;47.65;;;25.40;;
71303;SDS011;59091;47.446;19.148;2024-03-23T01:24:45;51.67;;;25.20;;
71303;SDS011;59091;47.446;19.148;2024-03-23T01:27:11;52.90;;;25.90;;
71303;SDS011;59091;47.446;19.148;2024-03-23T01:29:36;45.05;;;23.08;;
71303;SDS011;59091;47.446;19.148;2024-03-23T01:32:02;47.17;;;24.20;;
71303;SDS011;59091;47.446;19.148;2024-03-23T01:34:27;48.08;;;24.80;;
71303;SDS011;59091;47.446;19.148;2024-03-23T01:36:53;47.22;;;24.27;;
71303;SDS011;59091;47.446;19.148;2024-03-23T01:39:18;41.35;;;22.92;;
71303;SDS011;59091;47.446;19.148;2024-03-23T01:41:44;43.90;;;23.73;;
71303;SDS011;59091;47.446;19.148;2024-03-23T01:44:09;46.50;;;23.38;;
71303;SDS011;59091;47.446;19.148;2024-03-23T01:46:36;42.20;;;23.20;;
71303;SDS011;59091;47.446;19.148;2024-03-23T01:49:03;42.72;;;23.15;;
71303;SDS011;59091;47.446;19.148;2024-03-23T01:51:29;38.85;;;23.02;;
71303;SDS011;59091;47.446;19.148;2024-03-23T01:53:55;44.55;;;24.10;;
71303;SDS011;59091;47.446;19.148;2024-03-23T01:56:21;41.92;;;23.58;;
71303;SDS011;59091;47.446;19.148;2024-03-23T01:58:47;41.25;;;23.00;;
71303;SDS011;59091;47.446;19.148;2024-03-23T02:01:12;45.10;;;22.65;;
71303;SDS011;59091;47.446;19.148;2024-03-23T02:03:38;40.55;;;23.77;;
71303;SDS011;59091;47.446;19.148;2024-03-23T02:06:03;41.67;;;22.80;;
71303;SDS011;59091;47.446;19.148;2024-03-23T02:08:29;39.58;;;22.52;;
71303;SDS011;59091;47.446;19.148;2024-03-23T02:10:56;43.13;;;23.88;;
71303;SDS011;59091;47.446;19.148;2024-03-23T02:13:23;44.53;;;23.63;;
71303;SDS011;59091;47.446;19.148;2024-03-23T02:15:49;40.65;;;21.58;;
71303;SDS011;59091;47.446;19.148;2024-03-23T02:18:14;35.25;;;21.33;;
71303;SDS011;59091;47.446;19.148;2024-03-23T02:20:40;40.58;;;22.73;;
71303;SDS011;59091;47.446;19.148;2024-03-23T02:23:05;38.90;;;21.70;;
71303;SDS011;59091;47.446;19.148;2024-03-23T02:25:31;37.90;;;22.17;;
71303;SDS011;59091;47.446;19.148;2024-03-23T02:27:58;43.22;;;21.52;;
71303;SDS011;59091;47.446;19.148;2024-03-23T02:30:24;39.20;;;22.15;;
71303;SDS011;59091;47.446;19.148;2024-03-23T02:32:50;33.78;;;20.48;;
71303;SDS011;59091;47.446;19.148;2024-03-23T02:35:15;37.80;;;21.35;;
71303;SDS011;59091;47.446;19.148;2024-03-23T02:37:41;40.63;;;21.52;;
71303;SDS011;59091;47.446;19.148;2024-03-23T02:40:06;39.13;;;21.77;;
71303;SDS011;59091;47.446;19.148;2024-03-23T02:42:32;35.83;;;21.05;;
71303;SDS011;59091;47.446;19.148;2024-03-23T02:44:58;37.88;;;21.85;;
71303;SDS011;59091;47.446;19.148;2024-03-23T02:47:23;34.90;;;20.75;;
71303;SDS011;59091;47.446;19.148;2024-03-23T02:49:49;40.30;;;21.88;;
71303;SDS011;59091;47.446;19.148;2024-03-23T02:52:14;39.40;;;21.27;;
71303;SDS011;59091;47.446;19.148;2024-03-23T02:54:40;38.35;;;22.00;;
71303;SDS011;59091;47.446;19.148;2024-03-23T02:57:09;38.92;;;20.95;;
71303;SDS011;59091;47.446;19.148;2024-03-23T02:59:35;41.35;;;21.48;;
71303;SDS011;59091;47.446;19.148;2024-03-23T03:02:00;37.70;;;20.75;;
71303;SDS011;59091;47.446;19.148;2024-03-23T03:04:26;36.00;;;20.77;;
71303;SDS011;59091;47.446;19.148;2024-03-23T03:06:51;35.33;;;21.02;;
71303;SDS011;59091;47.446;19.148;2024-03-23T03:09:17;35.58;;;21.08;;
71303;SDS011;59091;47.446;19.148;2024-03-23T03:11:42;34.85;;;20.13;;
71303;SDS011;59091;47.446;19.148;2024-03-23T03:14:08;38.17;;;20.85;;
71303;SDS011;59091;47.446;19.148;2024-03-23T03:16:33;38.92;;;21.13;;
71303;SDS011;59091;47.446;19.148;2024-03-23T03:18:59;34.28;;;20.58;;
71303;SDS011;59091;47.446;19.148;2024-03-23T03:21:24;37.28;;;20.95;;
71303;SDS011;59091;47.446;19.148;2024-03-23T03:23:50;38.83;;;20.98;;
71303;SDS011;59091;47.446;19.148;2024-03-23T03:26:16;37.70;;;21.88;;
71303;SDS011;59091;47.446;19.148;2024-03-23T03:28:42;31.48;;;18.25;;
71303;SDS011;59091;47.446;19.148;2024-03-23T03:31:09;27.42;;;16.50;;
71303;SDS011;59091;47.446;19.148;2024-03-23T03:33:34;30.60;;;16.23;;
71303;SDS011;59091;47.446;19.148;2024-03-23T03:36:00;30.27;;;16.63;;
71303;SDS011;59091;47.446;19.148;2024-03-23T03:38:25;35.10;;;18.35;;
71303;SDS011;59091;47.446;19.148;2024-03-23T03:40:50;32.65;;;18.70;;
71303;SDS011;59091;47.446;19.148;2024-03-23T03:43:17;30.45;;;19.65;;
71303;SDS011;59091;47.446;19.148;2024-03-23T03:45:50;34.83;;;20.05;;
71303;SDS011;59091;47.446;19.148;2024-03-23T03:48:16;33.92;;;19.85;;
71303;SDS011;59091;47.446;19.148;2024-03-23T03:50:42;33.25;;;20.40;;
71303;SDS011;59091;47.446;19.148;2024-03-23T03:53:07;32.35;;;19.45;;
71303;SDS011;59091;47.446;19.148;2024-03-23T03:55:33;34.50;;;21.08;;
71303;SDS011;59091;47.446;19.148;2024-03-23T03:57:58;31.40;;;19.58;;
71303;SDS011;59091;47.446;19.148;2024-03-23T04:00:23;29.30;;;19.80;;
71303;SDS011;59091;47.446;19.148;2024-03-23T04:02:49;32.50;;;20.40;;
71303;SDS011;59091;47.446;19.148;2024-03-23T04:05:14;34.15;;;20.55;;
71303;SDS011;59091;47.446;19.148;2024-03-23T04:07:40;32.85;;;19.92;;
71303;SDS011;59091;47.446;19.148;2024-03-23T04:10:05;34.92;;;20.23;;
71303;SDS011;59091;47.446;19.148;2024-03-23T04:12:32;35.25;;;19.70;;
71303;SDS011;59091;47.446;19.148;2024-03-23T04:14:58;29.58;;;19.60;;
71303;SDS011;59091;47.446;19.148;2024-03-23T04:17:24;36.90;;;19.85;;
71303;SDS011;59091;47.446;19.148;2024-03-23T04:19:50;33.50;;;19.35;;
71303;SDS011;59091;47.446;19.148;2024-03-23T04:22:17;32.45;;;18.80;;
71303;SDS011;59091;47.446;19.148;2024-03-23T04:24:43;34.50;;;19.02;;
71303;SDS011;59091;47.446;19.148;2024-03-23T04:27:08;38.85;;;18.98;;
71303;SDS011;59091;47.446;19.148;2024-03-23T04:29:34;34.40;;;19.60;;
71303;SDS011;59091;47.446;19.148;2024-03-23T04:31:59;34.25;;;19.38;;
71303;SDS011;59091;47.446;19.148;2024-03-23T04:34:25;32.42;;;19.35;;
71303;SDS011;59091;47.446;19.148;2024-03-23T04:36:51;33.53;;;18.75;;
71303;SDS011;59091;47.446;19.148;2024-03-23T04:39:16;31.75;;;19.40;;
71303;SDS011;59091;47.446;19.148;2024-03-23T04:41:42;32.05;;;19.05;;
71303;SDS011;59091;47.446;19.148;2024-03-23T04:44:07;34.65;;;19.50;;
71303;SDS011;59091;47.446;19.148;2024-03-23T04:46:33;34.03;;;18.70;;
71303;SDS011;59091;47.446;19.148;2024-03-23T04:48:58;34.38;;;19.98;;
71303;SDS011;59091;47.446;19.148;2024-03-23T04:51:24;34.00;;;19.40;;
71303;SDS011;59091;47.446;19.148;2024-03-23T04:53:49;31.60;;;18.95;;
71303;SDS011;59091;47.446;19.148;2024-03-23T04:56:15;34.65;;;20.25;;
71303;SDS011;59091;47.446;19.148;2024-03-23T04:58:42;32.85;;;19.90;;
71303;SDS011;59091;47.446;19.148;2024-03-23T05:01:07;36.55;;;20.33;;
71303;SDS011;59091;47.446;19.148;2024-03-23T05:03:32;31.80;;;19.55;;
71303;SDS011;59091;47.446;19.148;2024-03-23T05:05:58;32.42;;;20.60;;
71303;SDS011;59091;47.446;19.148;2024-03-23T05:08:23;32.28;;;19.55;;
71303;SDS011;59091;47.446;19.148;2024-03-23T05:10:49;36.25;;;19.55;;
71303;SDS011;59091;47.446;19.148;2024-03-23T05:13:14;32.53;;;19.55;;
71303;SDS011;59091;47.446;19.148;2024-03-23T05:15:40;36.78;;;20.13;;
71303;SDS011;59091;47.446;19.148;2024-03-23T05:18:05;34.80;;;19.65;;
71303;SDS011;59091;47.446;19.148;2024-03-23T05:20:31;39.40;;;20.50;;
71303;SDS011;59091;47.446;19.148;2024-03-23T05:22:57;31.67;;;20.67;;
71303;SDS011;59091;47.446;19.148;2024-03-23T05:25:22;36.35;;;20.02;;
71303;SDS011;59091;47.446;19.148;2024-03-23T05:27:48;33.67;;;21.60;;
71303;SDS011;59091;47.446;19.148;2024-03-23T05:30:13;34.05;;;20.35;;
71303;SDS011;59091;47.446;19.148;2024-03-23T05:32:39;35.67;;;20.45;;
71303;SDS011;59091;47.446;19.148;2024-03-23T05:35:08;35.22;;;19.92;;
71303;SDS011;59091;47.446;19.148;2024-03-23T05:37:34;38.08;;;20.73;;
71303;SDS011;59091;47.446;19.148;2024-03-23T05:40:00;36.28;;;21.08;;
71303;SDS011;59091;47.446;19.148;2024-03-23T05:42:26;38.80;;;21.65;;
71303;SDS011;59091;47.446;19.148;2024-03-23T05:44:51;36.63;;;21.13;;
71303;SDS011;59091;47.446;19.148;2024-03-23T05:47:17;35.58;;;22.17;;
71303;SDS011;59091;47.446;19.148;2024-03-23T05:49:42;33.50;;;20.85;;
71303;SDS011;59091;47.446;19.148;2024-03-23T05:52:08;40.70;;;22.58;;
71303;SDS011;59091;47.446;19.148;2024-03-23T05:54:35;36.00;;;22.05;;
71303;SDS011;59091;47.446;19.148;2024-03-23T05:57:00;37.38;;;21.17;;
71303;SDS011;59091;47.446;19.148;2024-03-23T05:59:26;38.88;;;21.42;;
71303;SDS011;59091;47.446;19.148;2024-03-23T06:01:52;34.22;;;21.98;;
71303;SDS011;59091;47.446;19.148;2024-03-23T06:04:18;36.08;;;21.73;;
71303;SDS011;59091;47.446;19.148;2024-03-23T06:06:44;36.05;;;21.25;;
71303;SDS011;59091;47.446;19.148;2024-03-23T06:09:09;33.90;;;20.90;;
71303;SDS011;59091;47.446;19.148;2024-03-23T06:11:34;35.13;;;21.98;;
71303;SDS011;59091;47.446;19.148;2024-03-23T06:14:00;34.78;;;22.23;;
71303;SDS011;59091;47.446;19.148;2024-03-23T06:16:25;36.13;;;21.33;;
71303;SDS011;59091;47.446;19.148;2024-03-23T06:18:52;41.58;;;23.50;;
71303;SDS011;59091;47.446;19.148;2024-03-23T06:21:18;39.10;;;22.60;;
71303;SDS011;59091;47.446;19.148;2024-03-23T06:23:44;40.65;;;23.05;;
71303;SDS011;59091;47.446;19.148;2024-03-23T06:26:16;40.50;;;23.23;;
71303;SDS011;59091;47.446;19.148;2024-03-23T06:28:42;36.47;;;22.00;;
71303;SDS011;59091;47.446;19.148;2024-03-23T06:31:11;33.53;;;21.33;;
71303;SDS011;59091;47.446;19.148;2024-03-23T06:33:37;49.03;;;30.85;;
71303;SDS011;59091;47.446;19.148;2024-03-23T06:36:03;45.25;;;27.65;;
71303;SDS011;59091;47.446;19.148;2024-03-23T06:38:30;42.13;;;24.35;;
71303;SDS011;59091;47.446;19.148;2024-03-23T06:40:55;37.80;;;23.52;;
71303;SDS011;59091;47.446;19.148;2024-03-23T06:43:21;33.63;;;22.23;;
71303;SDS011;59091;47.446;19.148;2024-03-23T06:45:53;31.33;;;21.58;;
71303;SDS011;59091;47.446;19.148;2024-03-23T06:48:19;33.70;;;21.83;;
71303;SDS011;59091;47.446;19.148;2024-03-23T06:50:45;36.80;;;20.13;;
71303;SDS011;59091;47.446;19.148;2024-03-23T06:53:11;32.13;;;21.08;;
71303;SDS011;59091;47.446;19.148;2024-03-23T06:55:37;31.40;;;20.42;;
71303;SDS011;59091;47.446;19.148;2024-03-23T06:58:03;30.98;;;20.83;;
71303;SDS011;59091;47.446;19.148;2024-03-23T07:00:29;30.05;;;19.10;;
71303;SDS011;59091;47.446;19.148;2024-03-23T07:02:54;29.50;;;19.60;;
71303;SDS011;59091;47.446;19.148;2024-03-23T07:05:20;33.72;;;19.77;;
71303;SDS011;59091;47.446;19.148;2024-03-23T07:07:45;30.83;;;19.95;;
71303;SDS011;59091;47.446;19.148;2024-03-23T07:10:11;28.85;;;19.02;;
71303;SDS011;59091;47.446;19.148;2024-03-23T07:12:36;32.00;;;20.23;;
71303;SDS011;59091;47.446;19.148;2024-03-23T07:15:02;29.10;;;18.55;;
71303;SDS011;59091;47.446;19.148;2024-03-23T07:17:28;31.15;;;19.42;;
71303;SDS011;59091;47.446;19.148;2024-03-23T07:19:53;33.42;;;17.38;;
71303;SDS011;59091;47.446;19.148;2024-03-23T07:22:18;27.35;;;18.58;;
71303;SDS011;59091;47.446;19.148;2024-03-23T07:24:44;25.20;;;18.13;;
71303;SDS011;59091;47.446;19.148;2024-03-23T07:27:09;28.42;;;19.40;;
71303;SDS011;59091;47.446;19.148;2024-03-23T07:29:35;26.30;;;17.58;;
71303;SDS011;59091;47.446;19.148;2024-03-23T07:32:01;28.73;;;17.48;;
71303;SDS011;59091;47.446;19.148;2024-03-23T07:34:27;21.92;;;14.57;;
71303;SDS011;59091;47.446;19.148;2024-03-23T07:36:52;19.58;;;13.50;;
71303;SDS011;59091;47.446;19.148;2024-03-23T07:39:18;22.05;;;13.57;;
71303;SDS011;59091;47.446;19.148;2024-03-23T07:41:46;25.77;;;16.33;;
71303;SDS011;59091;47.446;19.148;2024-03-23T07:44:12;26.80;;;16.77;;
71303;SDS011;59091;47.446;19.148;2024-03-23T07:46:37;24.23;;;16.33;;
71303;SDS011;59091;47.446;19.148;2024-03-23T07:49:04;24.63;;;16.67;;
71303;SDS011;59091;47.446;19.148;2024-03-23T07:51:29;26.65;;;16.92;;
71303;SDS011;59091;47.446;19.148;2024-03-23T07:53:55;25.73;;;17.05;;
71303;SDS011;59091;47.446;19.148;2024-03-23T07:56:20;24.25;;;17.90;;
71303;SDS011;59091;47.446;19.148;2024-03-23T07:58:46;25.08;;;17.48;;
71303;SDS011;59091;47.446;19.148;2024-03-23T08:01:13;24.90;;;16.98;;
71303;SDS011;59091;47.446;19.148;2024-03-23T08:03:40;26.10;;;16.42;;
71303;SDS011;59091;47.446;19.148;2024-03-23T08:06:13;24.63;;;16.58;;
71303;SDS011;59091;47.446;19.148;2024-03-23T08:08:40;28.55;;;16.00;;
71303;SDS011;59091;47.446;19.148;2024-03-23T08:11:07;20.27;;;14.90;;
71303;SDS011;59091;47.446;19.148;2024-03-23T08:13:33;19.70;;;13.13;;
71303;SDS011;59091;47.446;19.148;2024-03-23T08:15:59;19.50;;;14.57;;
71303;SDS011;59091;47.446;19.148;2024-03-23T08:18:26;21.35;;;14.38;;
71303;SDS011;59091;47.446;19.148;2024-03-23T08:21:09;22.48;;;14.57;;
71303;SDS011;59091;47.446;19.148;2024-03-23T08:23:35;18.98;;;14.25;;
71303;SDS011;59091;47.446;19.148;2024-03-23T08:26:03;17.20;;;13.52;;
71303;SDS011;59091;47.446;19.148;2024-03-23T08:28:30;16.13;;;11.65;;
71303;SDS011;59091;47.446;19.148;2024-03-23T08:30:56;16.35;;;12.73;;
71303;SDS011;59091;47.446;19.148;2024-03-23T08:33:22;15.30;;;12.18;;
71303;SDS011;59091;47.446;19.148;2024-03-23T08:35:54;17.73;;;12.30;;
71303;SDS011;59091;47.446;19.148;2024-03-23T08:38:23;16.70;;;12.43;;
71303;SDS011;59091;47.446;19.148;2024-03-23T08:40:59;16.02;;;12.45;;
71303;SDS011;59091;47.446;19.148;2024-03-23T08:43:26;19.85;;;12.45;;
71303;SDS011;59091;47.446;19.148;2024-03-23T08:45:52;17.45;;;12.25;;
71303;SDS011;59091;47.446;19.148;2024-03-23T08:48:18;19.23;;;12.45;;
71303;SDS011;59091;47.446;19.148;2024-03-23T08:50:58;16.48;;;12.07;;
71303;SDS011;59091;47.446;19.148;2024-03-23T08:53:30;19.13;;;12.90;;
71303;SDS011;59091;47.446;19.148;2024-03-23T08:55:56;17.08;;;12.15;;
71303;SDS011;59091;47.446;19.148;2024-03-23T08:58:23;17.13;;;12.43;;
71303;SDS011;59091;47.446;19.148;2024-03-23T09:00:53;18.90;;;13.40;;
71303;SDS011;59091;47.446;19.148;2024-03-23T09:03:21;17.58;;;12.85;;
71303;SDS011;59091;47.446;19.148;2024-03-23T09:05:50;19.80;;;12.60;;
71303;SDS011;59091;47.446;19.148;2024-03-23T09:08:16;17.08;;;12.85;;
71303;SDS011;59091;47.446;19.148;2024-03-23T09:10:42;18.15;;;12.50;;
71303;SDS011;59091;47.446;19.148;2024-03-23T09:13:07;21.50;;;13.73;;
71303;SDS011;59091;47.446;19.148;2024-03-23T09:15:37;18.50;;;13.60;;
71303;SDS011;59091;47.446;19.148;2024-03-23T09:18:10;16.63;;;13.38;;
71303;SDS011;59091;47.446;19.148;2024-03-23T09:20:35;21.30;;;13.38;;
71303;SDS011;59091;47.446;19.148;2024-03-23T09:23:01;21.35;;;13.80;;
71303;SDS011;59091;47.446;19.148;2024-03-23T09:25:26;26.27;;;13.55;;
71303;SDS011;59091;47.446;19.148;2024-03-23T09:27:51;17.15;;;13.05;;
71303;SDS011;59091;47.446;19.148;2024-03-23T09:30:17;17.40;;;13.18;;
71303;SDS011;59091;47.446;19.148;2024-03-23T09:32:45;19.67;;;12.90;;
71303;SDS011;59091;47.446;19.148;2024-03-23T09:35:11;17.73;;;12.93;;
71303;SDS011;59091;47.446;19.148;2024-03-23T09:37:38;19.08;;;13.00;;
71303;SDS011;59091;47.446;19.148;2024-03-23T09:40:07;20.35;;;13.32;;
71303;SDS011;59091;47.446;19.148;2024-03-23T09:42:34;18.95;;;12.32;;
71303;SDS011;59091;47.446;19.148;2024-03-23T09:45:00;17.92;;;12.82;;
71303;SDS011;59091;47.446;19.148;2024-03-23T09:47:26;16.98;;;11.73;;
71303;SDS011;59091;47.446;19.148;2024-03-23T09:49:52;18.50;;;11.57;;
71303;SDS011;59091;47.446;19.148;2024-03-23T09:52:18;17.33;;;12.02;;
71303;SDS011;59091;47.446;19.148;2024-03-23T09:54:44;16.55;;;12.13;;
71303;SDS011;59091;47.446;19.148;2024-03-23T09:57:10;15.85;;;11.35;;
71303;SDS011;59091;47.446;19.148;2024-03-23T09:59:35;14.32;;;10.85;;
71303;SDS011;59091;47.446;19.148;2024-03-23T10:02:01;15.45;;;11.50;;
71303;SDS011;59091;47.446;19.148;2024-03-23T10:04:39;20.38;;;10.13;;
71303;SDS011;59091;47.446;19.148;2024-03-23T10:07:13;15.23;;;9.05;;
71303;SDS011;59091;47.446;19.148;2024-03-23T10:09:39;10.48;;;6.30;;
71303;SDS011;59091;47.446;19.148;2024-03-23T10:12:12;9.00;;;5.68;;
71303;SDS011;59091;47.446;19.148;2024-03-23T10:14:41;8.98;;;5.47;;
71303;SDS011;59091;47.446;19.148;2024-03-23T10:17:17;10.75;;;5.32;;
71303;SDS011;59091;47.446;19.148;2024-03-23T10:19:50;6.82;;;4.93;;
71303;SDS011;59091;47.446;19.148;2024-03-23T10:22:20;11.05;;;4.43;;
71303;SDS011;59091;47.446;19.148;2024-03-23T10:24:51;9.68;;;4.90;;
71303;SDS011;59091;47.446;19.148;2024-03-23T10:27:17;7.93;;;4.07;;
71303;SDS011;59091;47.446;19.148;2024-03-23T10:29:44;12.20;;;4.40;;
71303;SDS011;59091;47.446;19.148;2024-03-23T10:32:10;16.40;;;4.25;;
71303;SDS011;59091;47.446;19.148;2024-03-23T10:34:37;8.90;;;4.10;;
71303;SDS011;59091;47.446;19.148;2024-03-23T10:37:03;11.38;;;4.28;;
71303;SDS011;59091;47.446;19.148;2024-03-23T10:39:30;7.00;;;4.57;;
71303;SDS011;59091;47.446;19.148;2024-03-23T10:41:58;10.60;;;4.03;;
71303;SDS011;59091;47.446;19.148;2024-03-23T10:44:27;7.65;;;3.70;;
71303;SDS011;59091;47.446;19.148;2024-03-23T10:46:55;6.57;;;3.83;;
71303;SDS011;59091;47.446;19.148;2024-03-23T10:49:25;9.65;;;4.15;;
71303;SDS011;59091;47.446;19.148;2024-03-23T10:51:52;10.60;;;4.40;;
71303;SDS011;59091;47.446;19.148;2024-03-23T10:54:18;14.23;;;4.60;;
71303;SDS011;59091;47.446;19.148;2024-03-23T10:56:46;7.63;;;4.55;;
71303;SDS011;59091;47.446;19.148;2024-03-23T10:59:12;9.07;;;4.38;;
71303;SDS011;59091;47.446;19.148;2024-03-23T11:01:55;11.23;;;4.70;;
71303;SDS011;59091;47.446;19.148;2024-03-23T11:04:37;7.65;;;4.70;;
71303;SDS011;59091;47.446;19.148;2024-03-23T11:07:28;5.80;;;4.28;;
71303;SDS011;59091;47.446;19.148;2024-03-23T11:09:49;7.78;;;4.50;;
71303;SDS011;59091;47.446;19.148;2024-03-23T11:17:31;11.10;;;4.38;;
71303;SDS011;59091;47.446;19.148;2024-03-23T11:19:57;6.20;;;4.05;;
71303;SDS011;59091;47.446;19.148;2024-03-23T11:22:45;7.95;;;4.38;;
71303;SDS011;59091;47.446;19.148;2024-03-23T11:25:21;6.50;;;3.97;;
71303;SDS011;59091;47.446;19.148;2024-03-23T11:27:49;8.73;;;4.32;;
71303;SDS011;59091;47.446;19.148;2024-03-23T11:32:47;11.70;;;4.25;;
71303;SDS011;59091;47.446;19.148;2024-03-23T11:35:26;5.75;;;4.15;;
71303;SDS011;59091;47.446;19.148;2024-03-23T11:40:31;15.40;;;4.13;;
71303;SDS011;59091;47.446;19.148;2024-03-23T11:43:01;27.92;;;4.97;;
71303;SDS011;59091;47.446;19.148;2024-03-23T11:45:28;87.35;;;8.85;;
71303;SDS011;59091;47.446;19.148;2024-03-23T11:50:36;51.20;;;6.85;;
71303;SDS011;59091;47.446;19.148;2024-03-23T11:53:12;12.30;;;3.70;;
71303;SDS011;59091;47.446;19.148;2024-03-23T11:55:46;5.50;;;3.67;;
71303;SDS011;59091;47.446;19.148;2024-03-23T11:58:22;6.87;;;3.67;;
71303;SDS011;59091;47.446;19.148;2024-03-23T12:00:52;4.43;;;3.08;;
71303;SDS011;59091;47.446;19.148;2024-03-23T12:03:18;4.95;;;3.40;;
71303;SDS011;59091;47.446;19.148;2024-03-23T12:05:50;9.55;;;2.88;;
71303;SDS011;59091;47.446;19.148;2024-03-23T12:10:47;7.63;;;3.60;;
71303;SDS011;59091;47.446;19.148;2024-03-23T12:13:17;5.90;;;3.47;;
71303;SDS011;59091;47.446;19.148;2024-03-23T12:15:47;5.30;;;3.67;;
71303;SDS011;59091;47.446;19.148;2024-03-23T12:18:15;4.70;;;3.20;;
71303;SDS011;59091;47.446;19.148;2024-03-23T12:20:40;8.00;;;3.30;;
71303;SDS011;59091;47.446;19.148;2024-03-23T12:23:07;9.80;;;2.95;;
71303;SDS011;59091;47.446;19.148;2024-03-23T12:25:34;4.35;;;3.08;;
71303;SDS011;59091;47.446;19.148;2024-03-23T12:28:00;3.70;;;2.50;;
71303;SDS011;59091;47.446;19.148;2024-03-23T12:30:25;3.75;;;2.50;;
71303;SDS011;59091;47.446;19.148;2024-03-23T12:32:51;4.78;;;2.50;;
71303;SDS011;59091;47.446;19.148;2024-03-23T12:35:16;10.30;;;2.97;;
71303;SDS011;59091;47.446;19.148;2024-03-23T12:37:43;5.43;;;2.80;;
71303;SDS011;59091;47.446;19.148;2024-03-23T12:40:08;8.18;;;2.83;;
71303;SDS011;59091;47.446;19.148;2024-03-23T12:42:34;6.43;;;2.80;;
71303;SDS011;59091;47.446;19.148;2024-03-23T12:45:00;8.32;;;2.60;;
71303;SDS011;59091;47.446;19.148;2024-03-23T12:47:26;5.00;;;2.67;;
71303;SDS011;59091;47.446;19.148;2024-03-23T12:49:52;3.17;;;2.30;;
71303;SDS011;59091;47.446;19.148;2024-03-23T12:52:17;3.30;;;2.60;;
71303;SDS011;59091;47.446;19.148;2024-03-23T12:54:43;2.85;;;2.50;;
71303;SDS011;59091;47.446;19.148;2024-03-23T12:57:08;4.25;;;2.70;;
71303;SDS011;59091;47.446;19.148;2024-03-23T12:59:33;8.18;;;2.72;;
71303;SDS011;59091;47.446;19.148;2024-03-23T13:02:00;3.25;;;2.50;;
71303;SDS011;59091;47.446;19.148;2024-03-23T13:04:26;2.58;;;2.38;;
71303;SDS011;59091;47.446;19.148;2024-03-23T13:06:51;14.40;;;2.60;;
71303;SDS011;59091;47.446;19.148;2024-03-23T13:09:17;5.40;;;2.45;;
71303;SDS011;59091;47.446;19.148;2024-03-23T13:11:42;6.35;;;2.80;;
71303;SDS011;59091;47.446;19.148;2024-03-23T13:14:07;2.88;;;2.60;;
71303;SDS011;59091;47.446;19.148;2024-03-23T13:16:33;7.40;;;2.60;;
71303;SDS011;59091;47.446;19.148;2024-03-23T13:18:58;3.33;;;2.45;;
71303;SDS011;59091;47.446;19.148;2024-03-23T13:21:26;3.50;;;2.63;;
71303;SDS011;59091;47.446;19.148;2024-03-23T13:23:52;5.00;;;2.60;;
71303;SDS011;59091;47.446;19.148;2024-03-23T13:26:17;4.53;;;2.42;;
71303;SDS011;59091;47.446;19.148;2024-03-23T13:28:42;6.32;;;2.60;;
71303;SDS011;59091;47.446;19.148;2024-03-23T13:31:08;3.60;;;2.30;;
71303;SDS011;59091;47.446;19.148;2024-03-23T13:33:33;5.18;;;2.67;;
71303;SDS011;59091;47.446;19.148;2024-03-23T13:35:59;4.80;;;2.63;;
71303;SDS011;59091;47.446;19.148;2024-03-23T13:38:25;2.47;;;2.28;;
71303;SDS011;59091;47.446;19.148;2024-03-23T13:40:54;4.32;;;2.40;;
71303;SDS011;59091;47.446;19.148;2024-03-23T13:43:21;3.08;;;2.38;;
71303;SDS011;59091;47.446;19.148;2024-03-23T13:45:48;3.08;;;2.38;;
71303;SDS011;59091;47.446;19.148;2024-03-23T13:48:16;5.55;;;2.78;;
71303;SDS011;59091;47.446;19.148;2024-03-23T13:50:43;7.15;;;2.70;;
71303;SDS011;59091;47.446;19.148;2024-03-23T13:53:08;5.40;;;2.50;;
71303;SDS011;59091;47.446;19.148;2024-03-23T13:55:34;10.73;;;2.40;;
71303;SDS011;59091;47.446;19.148;2024-03-23T13:57:59;3.33;;;2.58;;
71303;SDS011;59091;47.446;19.148;2024-03-23T14:00:25;3.90;;;3.03;;
71303;SDS011;59091;47.446;19.148;2024-03-23T14:02:50;5.32;;;2.50;;
71303;SDS011;59091;47.446;19.148;2024-03-23T14:05:16;7.28;;;5.80;;
71303;SDS011;59091;47.446;19.148;2024-03-23T14:07:41;7.68;;;5.50;;
71303;SDS011;59091;47.446;19.148;2024-03-23T14:10:07;9.98;;;4.78;;
71303;SDS011;59091;47.446;19.148;2024-03-23T14:12:36;4.80;;;3.65;;
71303;SDS011;59091;47.446;19.148;2024-03-23T14:15:05;7.55;;;3.90;;
71303;SDS011;59091;47.446;19.148;2024-03-23T14:17:31;7.05;;;3.08;;
71303;SDS011;59091;47.446;19.148;2024-03-23T14:19:56;9.15;;;3.05;;
71303;SDS011;59091;47.446;19.148;2024-03-23T14:22:25;3.35;;;2.80;;
71303;SDS011;59091;47.446;19.148;2024-03-23T14:24:54;8.48;;;2.90;;
71303;SDS011;59091;47.446;19.148;2024-03-23T14:27:19;4.15;;;2.75;;
71303;SDS011;59091;47.446;19.148;2024-03-23T14:29:46;4.43;;;2.78;;
71303;SDS011;59091;47.446;19.148;2024-03-23T14:32:12;6.43;;;2.60;;
71303;SDS011;59091;47.446;19.148;2024-03-23T14:34:38;3.17;;;2.83;;
71303;SDS011;59091;47.446;19.148;2024-03-23T14:37:03;5.97;;;2.70;;
71303;SDS011;59091;47.446;19.148;2024-03-23T14:39:30;10.45;;;2.70;;
71303;SDS011;59091;47.446;19.148;2024-03-23T14:41:56;4.82;;;3.13;;
71303;SDS011;59091;47.446;19.148;2024-03-23T14:44:22;5.50;;;2.75;;
71303;SDS011;59091;47.446;19.148;2024-03-23T14:46:47;4.90;;;2.80;;
71303;SDS011;59091;47.446;19.148;2024-03-23T14:49:16;3.47;;;2.92;;
71303;SDS011;59091;47.446;19.148;2024-03-23T14:51:41;4.47;;;2.60;;
71303;SDS011;59091;47.446;19.148;2024-03-23T14:54:07;2.63;;;2.42;;
71303;SDS011;59091;47.446;19.148;2024-03-23T14:56:33;6.13;;;3.22;;
71303;SDS011;59091;47.446;19.148;2024-03-23T14:58:59;11.30;;;3.95;;
71303;SDS011;59091;47.446;19.148;2024-03-23T15:01:25;3.95;;;2.85;;
71303;SDS011;59091;47.446;19.148;2024-03-23T15:03:50;4.40;;;2.95;;
71303;SDS011;59091;47.446;19.148;2024-03-23T15:06:18;6.70;;;3.20;;
71303;SDS011;59091;47.446;19.148;2024-03-23T15:08:44;3.10;;;2.80;;
71303;SDS011;59091;47.446;19.148;2024-03-23T15:11:09;9.15;;;2.92;;
71303;SDS011;59091;47.446;19.148;2024-03-23T15:13:35;5.72;;;3.08;;
71303;SDS011;59091;47.446;19.148;2024-03-23T15:16:02;7.10;;;3.05;;
71303;SDS011;59091;47.446;19.148;2024-03-23T15:18:31;3.50;;;3.20;;
71303;SDS011;59091;47.446;19.148;2024-03-23T15:21:00;4.78;;;3.28;;